Weather reports worldwide

Advertisment
Metz-Frescaty, France (7090): temperature & dewpoint: 20.10.2020 11:00:00 - 26.10.2020 11:00:00 (CET)Metz-Frescaty, France (7090): temperature -20cm: 20.10.2020 11:00:00 - 26.10.2020 11:00:00 (CET)Metz-Frescaty, France (7090): wind speed & gusts: 20.10.2020 11:00:00 - 26.10.2020 11:00:00 (CET)Metz-Frescaty, France (7090): wind direction: 20.10.2020 11:00:00 - 26.10.2020 11:00:00 (CET)Metz-Frescaty, France (7090): precipitation: 20.10.2020 11:00:00 - 26.10.2020 11:00:00 (CET)
Date & Time tt [°C] td [°C] tt -20cm [°C] ff [km/h] ff [kn] fx [km/h] fx [kn] dd rr [mm]
26.10.2020 11:00:00 10,4 6,5 12,4 12 6 24 13 SW 0,0
26.10.2020 10:00:00 9,9 7,0 12,5 11 6 29 16 SW 0,0
26.10.2020 09:00:00 9,5 7,3 12,5 10 5 24 13 SW 0,0
26.10.2020 08:00:00 9,4 7,3 12,7 9 5 26 14 SW 0,0
26.10.2020 07:00:00 9,5 7,6 12,7 10 5 24 13 SSW 0,0
26.10.2020 06:00:00 9,7 7,8 12,7 10 5 23 12 SW 0,0
26.10.2020 05:00:00 10,2 8,3 12,7 9 5 22 12 SW 0,0
26.10.2020 04:00:00 10,5 8,9 12,7 8 4 21 12 SW 0,0
26.10.2020 03:00:00 10,8 9,6 12,7 12 6 23 12 SW 3,4
26.10.2020 02:00:00 10,6 9,8 12,7 8 5 15 8 S 0,2
26.10.2020 01:00:00 10,4 9,6 12,7 8 5 13 7 SSE 0,0
26.10.2020 00:00:00 10,4 9,6 12,7 8 4 13 7 SSE 0,4
25.10.2020 23:00:00 10,4 9,8 12,9 8 5 17 9 S 0,2
25.10.2020 22:00:00 10,5 9,6 12,9 8 5 16 9 S 0,0
25.10.2020 21:00:00 10,6 9,7 12,9 5 3 17 9 SSE 0,0
25.10.2020 20:00:00 10,6 9,7 13,0 9 5 18 10 S 0,4
25.10.2020 19:00:00 10,9 8,8 13,0 10 5 19 10 S 0,8
25.10.2020 18:00:00 11,3 9,2 13,0 9 5 24 13 SSW 1,2
25.10.2020 17:00:00 11,5 9,6 13,0 11 6 24 13 SW 1,8
25.10.2020 16:00:00 11,5 9,7 13,0 11 6 24 13 WSW 4,4
25.10.2020 15:00:00 12,5 10,6 13,0 7 4 16 9 S 1,0
25.10.2020 14:00:00 13,1 9,9 12,9 12 6 29 15 SSW 0,8
25.10.2020 13:00:00 14,7 8,6 12,9 13 7 28 15 SSW 0,0
25.10.2020 12:00:00 14,5 8,4 12,9 11 6 25 14 S 0,0
25.10.2020 11:00:00 13,9 8,3 12,9 13 7 29 16 S 0,0
25.10.2020 10:00:00 13,2 8,5 12,9 11 6 24 13 S 0,0
25.10.2020 09:00:00 12,4 8,3 13,0 11 6 27 15 S 0,0
25.10.2020 08:00:00 12,0 8,1 13,0 13 7 29 16 S 0,0
25.10.2020 07:00:00 11,3 8,2 13,0 15 8 28 15 SSE 0,0
25.10.2020 06:00:00 10,9 8,1 13,0 16 9 29 15 SSE 0,0
25.10.2020 05:00:00 11,0 8,2 13,2 14 8 26 14 SSE 0,0
25.10.2020 04:00:00 11,2 8,2 13,2 13 7 26 14 SSE 0,0
25.10.2020 03:00:00 11,2 8,4 13,2 11 6 19 10 S 0,0
25.10.2020 02:00:00 11,6 8,6 13,4 9 5 20 11 S 0,0
25.10.2020 01:00:00 - - - - - - - - -
25.10.2020 00:00:00 12,2 9,2 13,4 7 4 16 8 SSE 0,0
24.10.2020 23:00:00 13,4 9,4 13,5 10 5 23 13 S 0,0
24.10.2020 22:00:00 13,7 9,7 13,5 10 5 21 11 S 0,0
24.10.2020 21:00:00 13,7 10,1 13,5 10 6 25 14 S 0,0
24.10.2020 20:00:00 13,9 10,3 13,5 14 8 28 15 S 0,0
24.10.2020 19:00:00 14,2 10,4 13,5 15 8 26 14 S 0,0
24.10.2020 18:00:00 14,4 10,4 13,5 15 8 29 16 SSW 0,0
24.10.2020 17:00:00 14,7 10,1 13,5 13 7 25 14 S 0,0
24.10.2020 16:00:00 15,2 10,0 13,4 14 8 31 17 S 0,0
24.10.2020 15:00:00 15,4 9,7 13,4 16 8 29 16 SSW 0,0
24.10.2020 14:00:00 15,8 9,9 13,2 14 8 37 20 S 0,0
24.10.2020 13:00:00 15,3 9,6 13,2 16 9 35 19 SSW 0,0
24.10.2020 12:00:00 14,7 9,5 13,2 14 7 28 15 SSW 0,0
24.10.2020 11:00:00 13,7 8,9 13,2 12 6 24 13 S 0,0
24.10.2020 10:00:00 12,7 8,4 13,2 10 6 24 13 S 0,0
24.10.2020 09:00:00 12,1 8,2 13,2 10 5 21 11 SSW 0,0
24.10.2020 08:00:00 11,8 8,5 13,2 10 5 23 12 SW 0,0
24.10.2020 07:00:00 12,4 9,4 13,4 11 6 30 16 WSW 0,0
24.10.2020 06:00:00 12,8 10,3 13,4 9 5 21 12 SW 0,0
24.10.2020 05:00:00 13,1 11,0 13,4 8 4 20 11 SW 0,0
24.10.2020 04:00:00 13,3 11,0 13,5 10 5 23 12 SW 0,0
24.10.2020 03:00:00 13,4 11,1 13,5 11 6 27 15 SW 0,0
24.10.2020 02:00:00 13,1 11,2 13,7 13 7 25 14 WSW 0,0
24.10.2020 01:00:00 13,0 11,2 13,7 11 6 21 11 WSW 0,0
24.10.2020 00:00:00 13,2 11,4 13,7 9 5 21 11 SW 0,0
23.10.2020 23:00:00 13,6 11,8 13,7 12 7 22 12 WSW 0,0
23.10.2020 22:00:00 13,8 12,0 13,7 10 5 19 10 WSW 0,0
23.10.2020 21:00:00 13,8 12,4 13,9 10 6 19 10 WSW 0,0
23.10.2020 20:00:00 13,9 12,1 13,9 3 1 21 11 S 0,0
23.10.2020 19:00:00 14,2 12,8 13,9 5 3 10 6 SW 0,0
23.10.2020 18:00:00 15,0 12,7 13,7 7 4 21 11 WSW 0,0
23.10.2020 17:00:00 16,0 12,9 13,7 7 4 21 12 WSW 0,0
23.10.2020 16:00:00 16,4 12,9 13,7 6 3 26 14 SW 0,0
23.10.2020 15:00:00 16,9 13,2 13,7 9 5 18 10 WSW 0,0
23.10.2020 14:00:00 16,7 13,8 13,5 8 5 18 10 SSW 0,0
23.10.2020 13:00:00 15,9 13,2 13,4 8 4 17 9 SW 0,0
23.10.2020 12:00:00 16,4 13,9 13,4 5 3 21 11 SW 0,0
23.10.2020 11:00:00 15,2 13,7 13,2 7 4 19 10 WSW 0,2
23.10.2020 10:00:00 14,2 13,4 13,4 11 6 16 9 SE 1,4
23.10.2020 09:00:00 14,1 13,1 13,4 3 2 4 2 E 0,2
23.10.2020 08:00:00 14,0 12,7 13,4 4 2 14 8 SSW 0,0
23.10.2020 07:00:00 13,9 12,8 13,4 6 3 11 6 SW 0,0
23.10.2020 06:00:00 14,0 12,7 13,4 6 4 14 8 SSE 0,0
23.10.2020 05:00:00 14,0 13,0 13,4 9 5 13 7 S 0,0
23.10.2020 04:00:00 14,0 13,0 13,4 7 4 18 10 SSE 1,8
23.10.2020 03:00:00 14,5 13,2 13,4 7 4 16 9 S 0,0
23.10.2020 02:00:00 14,3 12,8 13,4 5 3 23 12 S 0,0
23.10.2020 01:00:00 14,7 13,4 13,4 10 6 19 11 S 0,0
23.10.2020 00:00:00 14,6 13,5 13,5 10 6 20 11 S 0,4
22.10.2020 23:00:00 14,6 13,3 13,5 6 4 19 10 SSE 0,4
22.10.2020 22:00:00 14,9 13,6 13,4 9 5 22 12 S 0,2
22.10.2020 21:00:00 15,0 13,7 13,5 11 6 22 12 S 0,2
22.10.2020 20:00:00 15,3 13,5 13,4 13 7 27 15 S 0,2
22.10.2020 19:00:00 15,9 13,6 13,4 9 5 16 9 SSE 0,2
22.10.2020 18:00:00 15,8 13,3 13,4 3 2 14 7 SE 0,0
22.10.2020 17:00:00 16,7 13,6 13,2 9 5 32 18 S 0,2
22.10.2020 16:00:00 19,6 12,4 13,2 9 5 20 11 S 0,0
22.10.2020 15:00:00 20,2 11,9 13,0 9 5 22 12 WSW 0,0
22.10.2020 14:00:00 21,4 12,3 13,0 9 5 19 10 SW 0,0
22.10.2020 13:00:00 20,5 11,7 12,7 11 6 24 13 S 0,0
22.10.2020 12:00:00 19,6 11,4 12,7 12 7 24 13 S 0,0
22.10.2020 11:00:00 19,3 12,3 12,7 12 6 24 13 SSE 0,0
22.10.2020 10:00:00 17,8 11,4 12,7 10 5 20 11 S 0,0
22.10.2020 09:00:00 14,9 11,5 12,7 4 2 13 7 S 0,0
22.10.2020 08:00:00 13,7 11,0 12,7 9 5 16 9 SSE 0,0
22.10.2020 07:00:00 14,1 11,6 12,7 7 4 25 14 S 0,4
22.10.2020 06:00:00 15,8 11,0 12,7 10 5 33 18 SW 0,0
22.10.2020 05:00:00 15,8 11,0 12,7 12 6 24 13 SSW 0,2
22.10.2020 04:00:00 16,6 10,0 12,7 8 4 27 14 S 0,0
22.10.2020 03:00:00 15,7 10,7 12,7 3 2 18 10 S 0,0
22.10.2020 02:00:00 17,2 10,8 12,7 7 4 29 16 SSW 0,0
22.10.2020 01:00:00 17,5 11,1 12,7 16 9 34 18 SSW 0,0
22.10.2020 00:00:00 17,4 11,2 12,7 12 6 32 17 SSW 0,0
21.10.2020 23:00:00 18,2 11,3 12,7 15 8 35 19 SSW 0,0
21.10.2020 22:00:00 18,5 10,8 12,7 15 8 36 20 SW 0,0
21.10.2020 21:00:00 18,9 10,7 12,5 18 10 34 19 SSW 0,0
21.10.2020 20:00:00 19,0 10,3 12,5 16 9 34 18 SSW 0,0
21.10.2020 19:00:00 19,1 10,1 12,4 15 8 29 16 SSW 0,0
21.10.2020 18:00:00 19,8 9,9 12,4 13 7 28 15 S 0,0
21.10.2020 17:00:00 20,5 10,0 12,2 14 8 28 15 S 0,0
21.10.2020 16:00:00 21,9 9,8 12,0 16 9 39 21 S 0,0
21.10.2020 15:00:00 22,1 9,6 11,9 19 10 40 22 S 0,0
21.10.2020 14:00:00 21,9 9,4 11,7 21 11 52 28 S 0,0
21.10.2020 13:00:00 21,6 8,8 11,7 22 12 68 37 SSW 0,0
21.10.2020 12:00:00 20,2 7,9 11,7 25 14 53 28 SSW 0,0
21.10.2020 11:00:00 19,2 6,6 11,7 27 15 65 35 S 0,0
21.10.2020 10:00:00 18,9 6,4 11,7 24 13 46 25 SSW 0,0
21.10.2020 09:00:00 17,3 4,9 11,7 16 9 37 20 S 0,0
21.10.2020 08:00:00 16,5 3,2 11,7 15 8 35 19 S 0,0
21.10.2020 07:00:00 15,6 3,1 11,7 14 8 31 17 S 0,0
21.10.2020 06:00:00 11,4 8,6 11,7 3 1 10 5 SSE 0,0
21.10.2020 05:00:00 12,0 8,1 11,7 5 3 11 6 SSE 0,0
21.10.2020 04:00:00 11,9 8,6 11,7 9 5 37 20 SE 0,6
21.10.2020 03:00:00 15,2 5,9 11,7 22 12 48 26 SSW 0,0
21.10.2020 02:00:00 15,6 5,8 11,7 20 11 37 20 SSW 0,0
21.10.2020 01:00:00 12,4 7,3 11,7 0 0 11 6 N 0,0
21.10.2020 00:00:00 12,6 7,1 11,7 3 2 10 6 SE 0,0
20.10.2020 23:00:00 13,2 7,4 11,7 10 5 11 6 ESE 0,0
20.10.2020 22:00:00 14,0 7,3 11,7 6 3 19 10 SSE 0,0
20.10.2020 21:00:00 14,4 8,6 11,5 10 6 19 10 SSE 0,0
20.10.2020 20:00:00 14,0 9,6 11,5 6 3 18 10 SE 0,0
20.10.2020 19:00:00 14,8 10,0 11,4 11 6 23 12 S 0,0
20.10.2020 18:00:00 15,2 10,0 11,2 9 5 18 10 S 0,0
20.10.2020 17:00:00 16,3 9,5 11,2 7 4 18 10 S 0,0
20.10.2020 16:00:00 16,1 10,2 11,2 6 4 18 10 SSE 0,0
20.10.2020 15:00:00 16,3 9,7 11,0 10 5 15 8 SSE 0,0
20.10.2020 14:00:00 16,9 9,3 10,9 5 3 19 10 SSE 0,0
20.10.2020 13:00:00 16,7 9,4 10,7 10 5 20 11 SSE 0,0
20.10.2020 12:00:00 16,3 9,5 10,7 10 5 19 10 SSE 0,0
20.10.2020 11:00:00 15,3 9,0 10,7 13 7 26 14 SSE 0,0

tt = temperature
td = dewpoint
tt -20cm = temperature -20cm
ff = wind speed
fx = gusts
dd = wind direction
rr = precipitation

Next stations